sensor_id;sensor_type;location;lat;lon;timestamp;pressure;altitude;pressure_sealevel;temperature;humidity
70909;BME280;58554;52.006;5.926;2022-11-15T00:00:47;100043.06;;;9.88;66.66
70909;BME280;58554;52.006;5.926;2022-11-15T00:03:14;100040.34;;;9.90;66.88
70909;BME280;58554;52.006;5.926;2022-11-15T00:05:41;100035.97;;;9.89;66.73
70909;BME280;58554;52.006;5.926;2022-11-15T00:08:11;100043.81;;;9.90;67.02
70909;BME280;58554;52.006;5.926;2022-11-15T00:10:38;100043.41;;;9.97;67.25
70909;BME280;58554;52.006;5.926;2022-11-15T00:13:05;100040.25;;;10.04;67.12
70909;BME280;58554;52.006;5.926;2022-11-15T00:15:34;100039.84;;;10.10;66.83
70909;BME280;58554;52.006;5.926;2022-11-15T00:18:02;100032.69;;;10.12;67.05
70909;BME280;58554;52.006;5.926;2022-11-15T00:20:29;100039.72;;;10.12;66.99
70909;BME280;58554;52.006;5.926;2022-11-15T00:22:56;100036.06;;;10.14;66.85
70909;BME280;58554;52.006;5.926;2022-11-15T00:25:26;100031.72;;;10.13;67.00
70909;BME280;58554;52.006;5.926;2022-11-15T00:27:55;100027.59;;;10.09;66.98
70909;BME280;58554;52.006;5.926;2022-11-15T00:30:22;100026.09;;;10.05;67.15
70909;BME280;58554;52.006;5.926;2022-11-15T00:32:48;100020.81;;;10.05;67.30
70909;BME280;58554;52.006;5.926;2022-11-15T00:35:15;100016.28;;;10.07;67.28
70909;BME280;58554;52.006;5.926;2022-11-15T00:37:42;100014.47;;;10.08;67.21
70909;BME280;58554;52.006;5.926;2022-11-15T00:40:10;100017.97;;;10.08;67.49
70909;BME280;58554;52.006;5.926;2022-11-15T00:42:40;100012.69;;;10.08;67.37
70909;BME280;58554;52.006;5.926;2022-11-15T00:45:08;100015.34;;;10.08;67.59
70909;BME280;58554;52.006;5.926;2022-11-15T00:47:35;100012.47;;;10.11;67.64
70909;BME280;58554;52.006;5.926;2022-11-15T00:50:03;100011.81;;;10.08;67.55
70909;BME280;58554;52.006;5.926;2022-11-15T00:52:30;100011.09;;;10.06;67.59
70909;BME280;58554;52.006;5.926;2022-11-15T00:54:57;100015.34;;;10.08;67.80
70909;BME280;58554;52.006;5.926;2022-11-15T00:57:23;100011.72;;;10.09;67.83
70909;BME280;58554;52.006;5.926;2022-11-15T00:59:52;100011.81;;;10.08;67.87
70909;BME280;58554;52.006;5.926;2022-11-15T01:02:18;99997.69;;;10.09;67.81
70909;BME280;58554;52.006;5.926;2022-11-15T01:04:45;100000.22;;;10.10;67.96
70909;BME280;58554;52.006;5.926;2022-11-15T01:07:12;99997.38;;;10.13;67.79
70909;BME280;58554;52.006;5.926;2022-11-15T01:09:39;99994.41;;;10.18;67.86
70909;BME280;58554;52.006;5.926;2022-11-15T01:12:05;99985.53;;;10.19;67.84
70909;BME280;58554;52.006;5.926;2022-11-15T01:14:32;99994.41;;;10.18;67.87
70909;BME280;58554;52.006;5.926;2022-11-15T01:17:01;99988.06;;;10.21;68.14
70909;BME280;58554;52.006;5.926;2022-11-15T01:19:27;99985.53;;;10.19;67.95
70909;BME280;58554;52.006;5.926;2022-11-15T01:21:54;99983.00;;;10.18;68.19
70909;BME280;58554;52.006;5.926;2022-11-15T01:24:20;99983.75;;;10.20;68.20
70909;BME280;58554;52.006;5.926;2022-11-15T01:26:46;99978.97;;;10.25;68.14
70909;BME280;58554;52.006;5.926;2022-11-15T01:29:13;99982.25;;;10.28;68.21
70909;BME280;58554;52.006;5.926;2022-11-15T01:31:39;99982.91;;;10.32;68.28
70909;BME280;58554;52.006;5.926;2022-11-15T01:34:08;99972.97;;;10.36;68.20
70909;BME280;58554;52.006;5.926;2022-11-15T01:36:35;99968.31;;;10.39;68.33
70909;BME280;58554;52.006;5.926;2022-11-15T01:39:01;99962.91;;;10.41;68.35
70909;BME280;58554;52.006;5.926;2022-11-15T01:41:30;99956.78;;;10.40;68.33
70909;BME280;58554;52.006;5.926;2022-11-15T01:44:31;99958.47;;;10.41;68.55
70909;BME280;58554;52.006;5.926;2022-11-15T01:47:08;99960.19;;;10.42;68.32
70909;BME280;58554;52.006;5.926;2022-11-15T01:49:49;99962.72;;;10.44;68.50
70909;BME280;58554;52.006;5.926;2022-11-15T01:52:22;99960.69;;;10.47;68.55
70909;BME280;58554;52.006;5.926;2022-11-15T01:54:56;99952.56;;;10.50;68.42
70909;BME280;58554;52.006;5.926;2022-11-15T01:57:28;99960.34;;;10.52;68.63
70909;BME280;58554;52.006;5.926;2022-11-15T01:59:55;99960.16;;;10.55;68.44
70909;BME280;58554;52.006;5.926;2022-11-15T02:02:23;99958.88;;;10.61;68.51
70909;BME280;58554;52.006;5.926;2022-11-15T02:04:52;99959.28;;;10.67;68.57
70909;BME280;58554;52.006;5.926;2022-11-15T02:07:20;99955.47;;;10.71;68.66
70909;BME280;58554;52.006;5.926;2022-11-15T02:09:49;99952.31;;;10.79;68.43
70909;BME280;58554;52.006;5.926;2022-11-15T02:12:19;99951.00;;;10.85;68.54
70909;BME280;58554;52.006;5.926;2022-11-15T02:14:50;99949.94;;;10.87;68.56
70909;BME280;58554;52.006;5.926;2022-11-15T02:17:32;99951.31;;;10.93;68.63
70909;BME280;58554;52.006;5.926;2022-11-15T02:20:44;99949.06;;;11.00;68.60
70909;BME280;58554;52.006;5.926;2022-11-15T02:30:35;99940.25;;;11.12;68.20
70909;BME280;58554;52.006;5.926;2022-11-15T02:33:14;99946.28;;;11.14;68.44
70909;BME280;58554;52.006;5.926;2022-11-15T02:35:58;99936.66;;;11.13;68.14
70909;BME280;58554;52.006;5.926;2022-11-15T02:38:33;99938.56;;;11.11;68.42
70909;BME280;58554;52.006;5.926;2022-11-15T02:41:11;99934.97;;;11.12;68.32
70909;BME280;58554;52.006;5.926;2022-11-15T02:43:47;99930.41;;;11.14;68.36
70909;BME280;58554;52.006;5.926;2022-11-15T02:46:27;99914.53;;;11.14;68.39
70909;BME280;58554;52.006;5.926;2022-11-15T02:49:01;99917.91;;;11.16;68.37
70909;BME280;58554;52.006;5.926;2022-11-15T02:51:28;99914.19;;;11.19;68.33
70909;BME280;58554;52.006;5.926;2022-11-15T02:53:54;99915.16;;;11.18;68.55
70909;BME280;58554;52.006;5.926;2022-11-15T02:56:21;99915.25;;;11.16;68.56
70909;BME280;58554;52.006;5.926;2022-11-15T02:59:09;99915.06;;;11.19;68.52
70909;BME280;58554;52.006;5.926;2022-11-15T03:02:04;99909.63;;;11.21;68.63
70909;BME280;58554;52.006;5.926;2022-11-15T03:04:47;99903.28;;;11.23;68.60
70909;BME280;58554;52.006;5.926;2022-11-15T03:07:25;99907.41;;;11.27;68.33
70909;BME280;58554;52.006;5.926;2022-11-15T03:10:03;99898.38;;;11.30;68.41
70909;BME280;58554;52.006;5.926;2022-11-15T03:12:37;99894.66;;;11.32;68.30
70909;BME280;58554;52.006;5.926;2022-11-15T03:15:18;99888.91;;;11.39;68.52
70909;BME280;58554;52.006;5.926;2022-11-15T03:17:54;99890.47;;;11.41;68.42
70909;BME280;58554;52.006;5.926;2022-11-15T03:20:26;99887.81;;;11.41;68.42
70909;BME280;58554;52.006;5.926;2022-11-15T03:23:00;99890.59;;;11.40;68.19
70909;BME280;58554;52.006;5.926;2022-11-15T03:25:32;99892.28;;;11.41;68.45
70909;BME280;58554;52.006;5.926;2022-11-15T03:28:05;99888.91;;;11.39;68.60
70909;BME280;58554;52.006;5.926;2022-11-15T03:30:37;99888.06;;;11.38;68.73
70909;BME280;58554;52.006;5.926;2022-11-15T03:33:09;99885.31;;;11.40;68.65
70909;BME280;58554;52.006;5.926;2022-11-15T03:35:39;99891.34;;;11.42;68.78
70909;BME280;58554;52.006;5.926;2022-11-15T03:38:14;99888.69;;;11.42;68.94
70909;BME280;58554;52.006;5.926;2022-11-15T03:40:49;99886.03;;;11.42;68.84
70909;BME280;58554;52.006;5.926;2022-11-15T03:43:29;99888.69;;;11.42;69.01
70909;BME280;58554;52.006;5.926;2022-11-15T03:46:06;99890.59;;;11.40;69.06
70909;BME280;58554;52.006;5.926;2022-11-15T03:48:44;99894.09;;;11.40;69.29
70909;BME280;58554;52.006;5.926;2022-11-15T03:51:18;99891.66;;;11.37;69.53
70909;BME280;58554;52.006;5.926;2022-11-15T03:53:46;99894.09;;;11.40;69.63
70909;BME280;58554;52.006;5.926;2022-11-15T03:56:12;99902.66;;;11.44;69.52
70909;BME280;58554;52.006;5.926;2022-11-15T03:58:39;99899.03;;;11.45;69.55
70909;BME280;58554;52.006;5.926;2022-11-15T04:01:05;99897.09;;;11.47;69.66
70909;BME280;58554;52.006;5.926;2022-11-15T04:03:32;99898.69;;;11.49;69.61
70909;BME280;58554;52.006;5.926;2022-11-15T04:06:01;99895.91;;;11.51;69.82
70909;BME280;58554;52.006;5.926;2022-11-15T04:08:27;99895.81;;;11.52;69.67
70909;BME280;58554;52.006;5.926;2022-11-15T04:10:53;99899.06;;;11.56;69.67
70909;BME280;58554;52.006;5.926;2022-11-15T04:13:20;99898.00;;;11.59;69.80
70909;BME280;58554;52.006;5.926;2022-11-15T04:15:46;99899.69;;;11.60;69.83
70909;BME280;58554;52.006;5.926;2022-11-15T04:18:13;99903.28;;;11.59;69.98
70909;BME280;58554;52.006;5.926;2022-11-15T04:20:39;99901.38;;;11.61;69.89
70909;BME280;58554;52.006;5.926;2022-11-15T04:23:10;99899.31;;;11.64;70.11
70909;BME280;58554;52.006;5.926;2022-11-15T04:25:38;99900.03;;;11.66;70.10
70909;BME280;58554;52.006;5.926;2022-11-15T04:28:05;99893.81;;;11.67;70.21
70909;BME280;58554;52.006;5.926;2022-11-15T04:30:31;99875.28;;;11.67;70.28
70909;BME280;58554;52.006;5.926;2022-11-15T04:32:58;99883.09;;;11.69;70.62
70909;BME280;58554;52.006;5.926;2022-11-15T04:35:24;99879.59;;;11.68;70.70
70909;BME280;58554;52.006;5.926;2022-11-15T04:37:51;99888.63;;;11.66;70.73
70909;BME280;58554;52.006;5.926;2022-11-15T04:40:21;99892.00;;;11.68;70.79
70909;BME280;58554;52.006;5.926;2022-11-15T04:42:47;99883.69;;;11.72;71.05
70909;BME280;58554;52.006;5.926;2022-11-15T04:45:14;99880.81;;;11.75;71.00
70909;BME280;58554;52.006;5.926;2022-11-15T04:47:43;99885.03;;;11.78;70.92
70909;BME280;58554;52.006;5.926;2022-11-15T04:50:11;99885.66;;;11.82;71.03
70909;BME280;58554;52.006;5.926;2022-11-15T04:52:38;99888.88;;;11.85;71.12
70909;BME280;58554;52.006;5.926;2022-11-15T04:55:05;99892.25;;;11.87;71.03
70909;BME280;58554;52.006;5.926;2022-11-15T04:57:35;99890.34;;;11.89;70.98
70909;BME280;58554;52.006;5.926;2022-11-15T05:00:02;99883.13;;;11.91;70.99
70909;BME280;58554;52.006;5.926;2022-11-15T05:02:31;99889.16;;;11.93;71.09
70909;BME280;58554;52.006;5.926;2022-11-15T05:04:57;99883.84;;;11.93;71.09
70909;BME280;58554;52.006;5.926;2022-11-15T05:07:24;99884.72;;;11.94;71.17
70909;BME280;58554;52.006;5.926;2022-11-15T05:09:50;99883.84;;;11.93;70.92
70909;BME280;58554;52.006;5.926;2022-11-15T05:12:16;99886.63;;;11.92;71.17
70909;BME280;58554;52.006;5.926;2022-11-15T05:14:45;99880.38;;;11.93;71.32
70909;BME280;58554;52.006;5.926;2022-11-15T05:17:12;99882.28;;;11.91;71.39
70909;BME280;58554;52.006;5.926;2022-11-15T05:19:38;99879.53;;;11.92;71.32
70909;BME280;58554;52.006;5.926;2022-11-15T05:22:04;99887.22;;;11.95;71.36
70909;BME280;58554;52.006;5.926;2022-11-15T05:24:31;99882.53;;;11.99;71.35
70909;BME280;58554;52.006;5.926;2022-11-15T05:26:57;99881.34;;;12.03;71.38
70909;BME280;58554;52.006;5.926;2022-11-15T05:29:24;99876.75;;;12.05;71.36
70909;BME280;58554;52.006;5.926;2022-11-15T05:31:53;99868.69;;;12.07;71.34
70909;BME280;58554;52.006;5.926;2022-11-15T05:34:19;99878.47;;;12.06;71.24
70909;BME280;58554;52.006;5.926;2022-11-15T05:36:46;99882.56;;;12.10;71.23
70909;BME280;58554;52.006;5.926;2022-11-15T05:39:12;99880.63;;;12.12;71.10
70909;BME280;58554;52.006;5.926;2022-11-15T05:41:44;99879.56;;;12.15;71.34
70909;BME280;58554;52.006;5.926;2022-11-15T05:44:17;99886.41;;;12.18;71.15
70909;BME280;58554;52.006;5.926;2022-11-15T05:46:48;99881.72;;;12.21;71.12
70909;BME280;58554;52.006;5.926;2022-11-15T05:49:23;99884.22;;;12.23;71.00
70909;BME280;58554;52.006;5.926;2022-11-15T05:51:55;99887.03;;;12.21;71.07
70909;BME280;58554;52.006;5.926;2022-11-15T05:54:24;99886.28;;;12.19;71.33
70909;BME280;58554;52.006;5.926;2022-11-15T05:56:52;99888.69;;;12.22;71.25
70909;BME280;58554;52.006;5.926;2022-11-15T05:59:19;99891.47;;;12.21;71.21
70909;BME280;58554;52.006;5.926;2022-11-15T06:01:46;99888.09;;;12.19;71.27
70909;BME280;58554;52.006;5.926;2022-11-15T06:04:13;99896.03;;;12.19;71.39
70909;BME280;58554;52.006;5.926;2022-11-15T06:06:42;99891.59;;;12.19;71.39
70909;BME280;58554;52.006;5.926;2022-11-15T06:09:08;99900.13;;;12.23;71.29
70909;BME280;58554;52.006;5.926;2022-11-15T06:11:34;99900.03;;;12.24;71.27
70909;BME280;58554;52.006;5.926;2022-11-15T06:14:01;99898.94;;;12.27;71.27
70909;BME280;58554;52.006;5.926;2022-11-15T06:16:27;99900.41;;;12.31;71.36
70909;BME280;58554;52.006;5.926;2022-11-15T06:18:54;99900.91;;;12.36;71.33
70909;BME280;58554;52.006;5.926;2022-11-15T06:21:20;99892.69;;;12.39;71.28
70909;BME280;58554;52.006;5.926;2022-11-15T06:23:49;99890.78;;;12.41;71.17
70909;BME280;58554;52.006;5.926;2022-11-15T06:26:16;99890.78;;;12.41;71.23
70909;BME280;58554;52.006;5.926;2022-11-15T06:28:42;99889.81;;;12.42;71.22
70909;BME280;58554;52.006;5.926;2022-11-15T06:31:10;99887.88;;;12.44;71.31
70909;BME280;58554;52.006;5.926;2022-11-15T06:33:37;99890.53;;;12.44;71.37
70909;BME280;58554;52.006;5.926;2022-11-15T06:36:06;99894.88;;;12.45;71.17
70909;BME280;58554;52.006;5.926;2022-11-15T06:38:35;99894.03;;;12.45;71.14
70909;BME280;58554;52.006;5.926;2022-11-15T06:41:07;99900.16;;;12.45;71.33
70909;BME280;58554;52.006;5.926;2022-11-15T06:43:36;99900.16;;;12.45;71.10
70909;BME280;58554;52.006;5.926;2022-11-15T06:46:04;99907.03;;;12.48;71.17
70909;BME280;58554;52.006;5.926;2022-11-15T06:48:33;99912.09;;;12.51;71.25
70909;BME280;58554;52.006;5.926;2022-11-15T06:51:01;99922.59;;;12.52;71.18
70909;BME280;58554;52.006;5.926;2022-11-15T06:53:30;99909.44;;;12.51;71.09
70909;BME280;58554;52.006;5.926;2022-11-15T06:55:59;99912.09;;;12.51;71.18
70909;BME280;58554;52.006;5.926;2022-11-15T06:58:29;99916.44;;;12.52;71.04
70909;BME280;58554;52.006;5.926;2022-11-15T07:00:58;99914.88;;;12.49;70.96
70909;BME280;58554;52.006;5.926;2022-11-15T07:03:25;99914.25;;;12.46;70.98
70909;BME280;58554;52.006;5.926;2022-11-15T07:05:53;99911.41;;;12.38;70.93
70909;BME280;58554;52.006;5.926;2022-11-15T07:08:21;99911.16;;;12.29;71.19
70909;BME280;58554;52.006;5.926;2022-11-15T07:10:48;99915.94;;;12.24;71.16
70909;BME280;58554;52.006;5.926;2022-11-15T07:13:15;99920.03;;;12.17;71.07
70909;BME280;58554;52.006;5.926;2022-11-15T07:15:44;99925.19;;;12.07;71.23
70909;BME280;58554;52.006;5.926;2022-11-15T07:18:11;99921.81;;;11.94;71.39
70909;BME280;58554;52.006;5.926;2022-11-15T07:20:37;99926.13;;;11.84;71.48
70909;BME280;58554;52.006;5.926;2022-11-15T07:23:04;99924.28;;;11.73;71.68
70909;BME280;58554;52.006;5.926;2022-11-15T07:25:31;99932.28;;;11.60;71.97
70909;BME280;58554;52.006;5.926;2022-11-15T07:27:59;99931.28;;;11.50;72.19
70909;BME280;58554;52.006;5.926;2022-11-15T07:30:26;99936.34;;;11.42;72.37
70909;BME280;58554;52.006;5.926;2022-11-15T07:32:57;99942.19;;;11.34;72.46
70909;BME280;58554;52.006;5.926;2022-11-15T07:35:26;99936.72;;;11.24;72.69
70909;BME280;58554;52.006;5.926;2022-11-15T07:37:55;99943.53;;;11.15;72.91
70909;BME280;58554;52.006;5.926;2022-11-15T07:40:23;99951.91;;;11.09;72.94
70909;BME280;58554;52.006;5.926;2022-11-15T07:42:50;99942.75;;;11.02;73.15
70909;BME280;58554;52.006;5.926;2022-11-15T07:45:16;99942.22;;;10.97;73.37
70909;BME280;58554;52.006;5.926;2022-11-15T07:47:45;99940.75;;;10.93;73.35
70909;BME280;58554;52.006;5.926;2022-11-15T07:50:15;99944.56;;;10.89;73.55
70909;BME280;58554;52.006;5.926;2022-11-15T07:52:42;99942.22;;;10.84;73.87
70909;BME280;58554;52.006;5.926;2022-11-15T07:55:09;99950.59;;;10.78;74.05
70909;BME280;58554;52.006;5.926;2022-11-15T07:57:35;99942.03;;;10.74;74.06
70909;BME280;58554;52.006;5.926;2022-11-15T08:00:03;99941.44;;;10.71;74.21
70909;BME280;58554;52.006;5.926;2022-11-15T08:02:31;99943.34;;;10.69;74.30
70909;BME280;58554;52.006;5.926;2022-11-15T08:04:57;99937.31;;;10.67;74.39
70909;BME280;58554;52.006;5.926;2022-11-15T08:07:28;99943.63;;;10.64;74.40
70909;BME280;58554;52.006;5.926;2022-11-15T08:09:55;99937.59;;;10.62;74.78
70909;BME280;58554;52.006;5.926;2022-11-15T08:12:22;99936.88;;;10.60;74.81
70909;BME280;58554;52.006;5.926;2022-11-15T08:14:49;99944.81;;;10.60;75.09
70909;BME280;58554;52.006;5.926;2022-11-15T08:17:15;99943.97;;;10.60;75.26
70909;BME280;58554;52.006;5.926;2022-11-15T08:19:42;99944.81;;;10.60;75.13
70909;BME280;58554;52.006;5.926;2022-11-15T08:22:08;99930.75;;;10.60;75.39
70909;BME280;58554;52.006;5.926;2022-11-15T08:24:37;99930.75;;;10.60;75.34
70909;BME280;58554;52.006;5.926;2022-11-15T08:27:04;99928.94;;;10.60;75.55
70909;BME280;58554;52.006;5.926;2022-11-15T08:29:30;99932.31;;;10.62;75.74
70909;BME280;58554;52.006;5.926;2022-11-15T08:31:57;99925.25;;;10.63;75.60
70909;BME280;58554;52.006;5.926;2022-11-15T08:34:23;99924.19;;;10.65;75.90
70909;BME280;58554;52.006;5.926;2022-11-15T08:36:49;99932.13;;;10.65;75.74
70909;BME280;58554;52.006;5.926;2022-11-15T08:39:16;99925.03;;;10.66;76.16
70909;BME280;58554;52.006;5.926;2022-11-15T08:41:45;99930.31;;;10.66;75.85
70909;BME280;58554;52.006;5.926;2022-11-15T08:44:11;99924.09;;;10.67;76.22
70909;BME280;58554;52.006;5.926;2022-11-15T08:46:38;99923.97;;;10.68;76.05
70909;BME280;58554;52.006;5.926;2022-11-15T08:49:04;99927.34;;;10.70;76.22
70909;BME280;58554;52.006;5.926;2022-11-15T08:51:31;99922.91;;;10.71;76.29
70909;BME280;58554;52.006;5.926;2022-11-15T08:53:57;99920.13;;;10.72;76.21
70909;BME280;58554;52.006;5.926;2022-11-15T08:56:24;99922.69;;;10.74;76.31
70909;BME280;58554;52.006;5.926;2022-11-15T08:58:53;99933.25;;;10.74;76.63
70909;BME280;58554;52.006;5.926;2022-11-15T09:01:20;99933.91;;;10.78;76.46
70909;BME280;58554;52.006;5.926;2022-11-15T09:03:47;99935.47;;;10.80;76.60
70909;BME280;58554;52.006;5.926;2022-11-15T09:06:14;99931.66;;;10.84;76.36
70909;BME280;58554;52.006;5.926;2022-11-15T09:08:41;99926.25;;;10.86;76.33
70909;BME280;58554;52.006;5.926;2022-11-15T09:11:10;99925.22;;;10.88;76.55
70909;BME280;58554;52.006;5.926;2022-11-15T09:13:37;99921.41;;;10.92;76.61
70909;BME280;58554;52.006;5.926;2022-11-15T09:16:06;99927.19;;;10.98;76.61
70909;BME280;58554;52.006;5.926;2022-11-15T09:18:33;99922.63;;;11.00;76.51
70909;BME280;58554;52.006;5.926;2022-11-15T09:21:00;99913.66;;;11.02;76.60
70909;BME280;58554;52.006;5.926;2022-11-15T09:23:27;99917.13;;;11.03;76.31
70909;BME280;58554;52.006;5.926;2022-11-15T09:25:58;99917.13;;;11.03;76.41
70909;BME280;58554;52.006;5.926;2022-11-15T09:28:26;99919.78;;;11.03;76.36
70909;BME280;58554;52.006;5.926;2022-11-15T09:30:56;99910.25;;;11.00;76.28
70909;BME280;58554;52.006;5.926;2022-11-15T09:33:26;99911.22;;;10.99;76.24
70909;BME280;58554;52.006;5.926;2022-11-15T09:35:53;99904.09;;;11.00;76.25
70909;BME280;58554;52.006;5.926;2022-11-15T09:38:20;99904.09;;;11.00;76.56
70909;BME280;58554;52.006;5.926;2022-11-15T09:40:50;99892.69;;;10.99;76.37
70909;BME280;58554;52.006;5.926;2022-11-15T09:43:31;99892.69;;;10.99;76.41
70909;BME280;58554;52.006;5.926;2022-11-15T09:46:10;99891.63;;;11.02;76.38
70909;BME280;58554;52.006;5.926;2022-11-15T09:48:51;99894.06;;;11.05;76.46
70909;BME280;58554;52.006;5.926;2022-11-15T09:51:30;99899.84;;;11.10;76.38
70909;BME280;58554;52.006;5.926;2022-11-15T09:54:11;99891.69;;;11.13;76.24
70909;BME280;58554;52.006;5.926;2022-11-15T09:56:46;99894.09;;;11.16;76.27
70909;BME280;58554;52.006;5.926;2022-11-15T09:59:22;99890.25;;;11.20;76.28
70909;BME280;58554;52.006;5.926;2022-11-15T10:02:08;99879.84;;;11.30;76.15
70909;BME280;58554;52.006;5.926;2022-11-15T10:04:48;99867.81;;;11.37;75.95
70909;BME280;58554;52.006;5.926;2022-11-15T10:07:20;99875.19;;;11.45;76.02
70909;BME280;58554;52.006;5.926;2022-11-15T10:09:55;99867.75;;;11.50;75.74
70909;BME280;58554;52.006;5.926;2022-11-15T10:12:26;99868.97;;;11.57;75.62
70909;BME280;58554;52.006;5.926;2022-11-15T10:15:00;99860.06;;;11.58;75.55
70909;BME280;58554;52.006;5.926;2022-11-15T10:17:41;99863.22;;;11.63;75.47
70909;BME280;58554;52.006;5.926;2022-11-15T10:20:26;99859.13;;;11.70;75.37
70909;BME280;58554;52.006;5.926;2022-11-15T10:22:56;99857.94;;;11.74;75.20
70909;BME280;58554;52.006;5.926;2022-11-15T10:25:27;99852.63;;;11.74;74.99
70909;BME280;58554;52.006;5.926;2022-11-15T10:27:57;99852.16;;;11.69;74.95
70909;BME280;58554;52.006;5.926;2022-11-15T10:30:33;99840.13;;;11.65;74.69
70909;BME280;58554;52.006;5.926;2022-11-15T10:33:12;99845.63;;;11.62;74.96
70909;BME280;58554;52.006;5.926;2022-11-15T10:36:21;99858.88;;;11.62;75.11
70909;BME280;58554;52.006;5.926;2022-11-15T10:38:55;99859.75;;;11.63;74.87
70909;BME280;58554;52.006;5.926;2022-11-15T10:41:31;99856.00;;;11.65;74.84
70909;BME280;58554;52.006;5.926;2022-11-15T10:44:18;99851.44;;;11.67;74.46
70909;BME280;58554;52.006;5.926;2022-11-15T10:49:56;99835.03;;;11.62;73.69
70909;BME280;58554;52.006;5.926;2022-11-15T10:52:32;99820.97;;;11.62;73.54
70909;BME280;58554;52.006;5.926;2022-11-15T10:55:06;99817.22;;;11.64;73.70
70909;BME280;58554;52.006;5.926;2022-11-15T10:57:50;99811.47;;;11.70;73.66
70909;BME280;58554;52.006;5.926;2022-11-15T11:00:31;99810.41;;;11.73;73.52
70909;BME280;58554;52.006;5.926;2022-11-15T11:03:02;99803.28;;;11.73;73.15
70909;BME280;58554;52.006;5.926;2022-11-15T11:05:31;99815.69;;;11.73;72.90
70909;BME280;58554;52.006;5.926;2022-11-15T11:08:04;99819.28;;;11.72;72.85
70909;BME280;58554;52.006;5.926;2022-11-15T11:10:52;99800.03;;;11.70;72.51
70909;BME280;58554;52.006;5.926;2022-11-15T11:13:22;99809.91;;;11.68;72.39
70909;BME280;58554;52.006;5.926;2022-11-15T11:15:55;99810.00;;;11.66;72.20
70909;BME280;58554;52.006;5.926;2022-11-15T11:18:49;99809.19;;;11.66;72.19
70909;BME280;58554;52.006;5.926;2022-11-15T11:21:28;99793.28;;;11.66;72.06
70909;BME280;58554;52.006;5.926;2022-11-15T11:24:14;99801.97;;;11.68;71.89
70909;BME280;58554;52.006;5.926;2022-11-15T11:26:59;99790.53;;;11.67;71.75
70909;BME280;58554;52.006;5.926;2022-11-15T11:29:50;99790.28;;;11.70;71.66
70909;BME280;58554;52.006;5.926;2022-11-15T11:32:55;99797.28;;;11.71;71.44
70909;BME280;58554;52.006;5.926;2022-11-15T11:35:41;99792.91;;;11.70;70.91
70909;BME280;58554;52.006;5.926;2022-11-15T11:38:41;99784.97;;;11.70;70.66
70909;BME280;58554;52.006;5.926;2022-11-15T11:41:31;99785.13;;;11.69;70.63
70909;BME280;58554;52.006;5.926;2022-11-15T11:44:22;99776.31;;;11.68;70.50
70909;BME280;58554;52.006;5.926;2022-11-15T11:46:56;99778.84;;;11.70;70.39
70909;BME280;58554;52.006;5.926;2022-11-15T11:49:33;99783.31;;;11.69;69.74
70909;BME280;58554;52.006;5.926;2022-11-15T11:52:11;99790.53;;;11.67;69.39
70909;BME280;58554;52.006;5.926;2022-11-15T11:54:50;99789.09;;;11.63;69.18
70909;BME280;58554;52.006;5.926;2022-11-15T11:57:33;99781.50;;;11.59;69.00
70909;BME280;58554;52.006;5.926;2022-11-15T12:00:16;99776.44;;;11.55;68.89
70909;BME280;58554;52.006;5.926;2022-11-15T12:02:50;99774.97;;;11.51;68.92
70909;BME280;58554;52.006;5.926;2022-11-15T12:05:40;99775.09;;;11.50;68.93
70909;BME280;58554;52.006;5.926;2022-11-15T12:08:23;99765.47;;;11.49;68.72
70909;BME280;58554;52.006;5.926;2022-11-15T12:11:03;99770.88;;;11.47;68.53
70909;BME280;58554;52.006;5.926;2022-11-15T12:13:38;99763.06;;;11.46;68.17
70909;BME280;58554;52.006;5.926;2022-11-15T12:16:12;99750.06;;;11.43;67.74
70909;BME280;58554;52.006;5.926;2022-11-15T12:18:46;99743.09;;;11.42;67.85
70909;BME280;58554;52.006;5.926;2022-11-15T12:21:21;99737.66;;;11.43;67.79
70909;BME280;58554;52.006;5.926;2022-11-15T12:24:00;99721.66;;;11.45;67.75
70909;BME280;58554;52.006;5.926;2022-11-15T12:26:33;99721.56;;;11.46;67.60
70909;BME280;58554;52.006;5.926;2022-11-15T12:29:14;99720.56;;;11.47;67.55
70909;BME280;58554;52.006;5.926;2022-11-15T12:31:49;99715.16;;;11.49;67.69
70909;BME280;58554;52.006;5.926;2022-11-15T12:34:36;99715.78;;;11.52;67.56
70909;BME280;58554;52.006;5.926;2022-11-15T12:40:21;99699.28;;;11.49;67.12
70909;BME280;58554;52.006;5.926;2022-11-15T12:46:12;99691.34;;;11.49;66.93
70909;BME280;58554;52.006;5.926;2022-11-15T12:48:54;99677.28;;;11.48;66.56
70909;BME280;58554;52.006;5.926;2022-11-15T12:54:54;99672.69;;;11.50;66.52
70909;BME280;58554;52.006;5.926;2022-11-15T12:57:43;99667.41;;;11.50;66.46
70909;BME280;58554;52.006;5.926;2022-11-15T13:03:26;99648.00;;;11.50;66.03
70909;BME280;58554;52.006;5.926;2022-11-15T13:06:04;99645.25;;;11.51;66.15
70909;BME280;58554;52.006;5.926;2022-11-15T13:08:55;99643.22;;;11.55;65.94
70909;BME280;58554;52.006;5.926;2022-11-15T13:11:46;99640.56;;;11.55;65.81
70909;BME280;58554;52.006;5.926;2022-11-15T13:14:42;99640.31;;;11.58;65.85
70909;BME280;58554;52.006;5.926;2022-11-15T13:17:26;99629.72;;;11.58;65.52
70909;BME280;58554;52.006;5.926;2022-11-15T13:20:07;99623.69;;;11.56;65.36
70909;BME280;58554;52.006;5.926;2022-11-15T13:22:45;99624.41;;;11.58;65.39
70909;BME280;58554;52.006;5.926;2022-11-15T13:25:20;99616.47;;;11.58;65.27
70909;BME280;58554;52.006;5.926;2022-11-15T13:27:58;99614.69;;;11.59;65.15
70909;BME280;58554;52.006;5.926;2022-11-15T13:30:29;99614.53;;;11.60;65.07
70909;BME280;58554;52.006;5.926;2022-11-15T13:32:59;99607.47;;;11.61;64.91
70909;BME280;58554;52.006;5.926;2022-11-15T13:35:40;99607.31;;;11.62;64.72
70909;BME280;58554;52.006;5.926;2022-11-15T13:38:18;99611.78;;;11.62;64.54
70909;BME280;58554;52.006;5.926;2022-11-15T13:40:51;99606.38;;;11.63;64.66
70909;BME280;58554;52.006;5.926;2022-11-15T13:43:27;99594.94;;;11.63;64.47
70909;BME280;58554;52.006;5.926;2022-11-15T13:46:11;99596.72;;;11.62;64.68
70909;BME280;58554;52.006;5.926;2022-11-15T13:48:40;99593.25;;;11.62;64.35